createdAt,value
2019-04-10T00:03:27.854Z,58.70
2019-04-10T00:07:41.693Z,58.60
2019-04-10T00:12:00.994Z,58.60
2019-04-10T00:16:20.879Z,58.50
2019-04-10T00:20:39.231Z,58.60
2019-04-10T00:24:58.033Z,58.70
2019-04-10T00:29:16.957Z,58.60
2019-04-10T00:33:35.419Z,58.70
2019-04-10T00:37:55.532Z,58.80
2019-04-10T00:42:15.406Z,58.70
2019-04-10T00:46:34.650Z,58.80
2019-04-10T00:50:52.998Z,58.70
2019-04-10T00:55:11.807Z,58.70
2019-04-10T00:59:30.473Z,58.70
2019-04-10T01:03:50.654Z,58.90
2019-04-10T01:08:10.665Z,59.00
2019-04-10T01:12:30.102Z,59.10
2019-04-10T01:16:49.679Z,59.70
2019-04-10T01:21:08.321Z,59.20
2019-04-10T01:25:26.703Z,59.10
2019-04-10T01:29:46.160Z,59.10
2019-04-10T01:34:07.320Z,59.00
2019-04-10T01:38:26.012Z,59.10
2019-04-10T01:43:00.798Z,59.20
2019-04-10T01:47:07.245Z,59.10
2019-04-10T01:51:25.600Z,59.20
2019-04-10T01:55:44.091Z,59.30
2019-04-10T02:00:02.722Z,59.00
2019-04-10T02:04:22.688Z,59.10
2019-04-10T02:08:40.872Z,59.00
2019-04-10T02:13:01.184Z,59.10
2019-04-10T02:17:21.017Z,59.00
2019-04-10T02:21:40.079Z,58.90
2019-04-10T02:25:59.259Z,58.90
2019-04-10T02:30:19.635Z,58.80
2019-04-10T02:34:39.345Z,58.80
2019-04-10T02:39:08.856Z,58.80
2019-04-10T02:43:18.906Z,58.80
2019-04-10T02:47:37.153Z,58.80
2019-04-10T02:51:56.926Z,58.80
2019-04-10T02:56:16.010Z,58.80
2019-04-10T03:00:36.079Z,58.90
2019-04-10T03:04:55.230Z,59.00
2019-04-10T03:09:30.397Z,59.00
2019-04-10T03:13:33.881Z,58.90
2019-04-10T03:17:52.487Z,58.90
2019-04-10T03:22:10.784Z,58.90
2019-04-10T03:26:29.885Z,58.80
2019-04-10T03:30:49.429Z,58.80
2019-04-10T03:35:16.721Z,58.80
2019-04-10T03:39:35.982Z,58.90
2019-04-10T03:43:54.327Z,58.80
2019-04-10T03:48:13.802Z,58.80
2019-04-10T03:52:33.574Z,58.80
2019-04-10T03:56:52.200Z,58.80
2019-04-10T04:01:11.010Z,58.70
2019-04-10T04:05:29.501Z,58.80
2019-04-10T04:09:48.075Z,58.80
2019-04-10T04:14:06.453Z,58.40
2019-04-10T04:18:24.900Z,58.90
2019-04-10T04:22:43.387Z,59.00
2019-04-10T04:27:02.744Z,59.00
2019-04-10T04:31:21.049Z,58.90
2019-04-10T04:35:39.518Z,58.80
2019-04-10T04:39:58.358Z,58.90
2019-04-10T04:44:20.283Z,58.80
2019-04-10T04:48:39.113Z,58.80
2019-04-10T04:52:58.217Z,58.80
2019-04-10T04:57:17.000Z,58.90
2019-04-10T05:01:36.861Z,58.90
2019-04-10T05:05:55.959Z,59.00
2019-04-10T05:10:15.378Z,59.00
2019-04-10T05:14:33.756Z,59.00
2019-04-10T05:18:52.060Z,59.10
2019-04-10T05:23:10.654Z,59.10
2019-04-10T05:27:32.977Z,59.10
2019-04-10T05:31:51.600Z,59.10
2019-04-10T05:36:10.011Z,59.10
2019-04-10T05:40:28.816Z,59.20
2019-04-10T05:44:47.867Z,59.20
2019-04-10T05:49:06.764Z,59.20
2019-04-10T05:53:25.358Z,59.20
2019-04-10T05:57:44.822Z,59.20
2019-04-10T06:02:05.154Z,58.70
2019-04-10T06:06:24.289Z,59.20
2019-04-10T06:10:43.643Z,59.30
2019-04-10T06:15:02.445Z,59.30
2019-04-10T06:19:22.014Z,59.80
2019-04-10T06:23:41.318Z,59.30
2019-04-10T06:28:01.012Z,59.30
2019-04-10T06:32:19.790Z,59.40
2019-04-10T06:36:39.657Z,59.30
2019-04-10T06:40:58.216Z,59.30
2019-04-10T06:45:17.709Z,59.50
2019-04-10T06:49:36.583Z,59.40
2019-04-10T06:54:02.831Z,59.50
2019-04-10T06:58:15.887Z,59.50
2019-04-10T07:02:35.630Z,59.70
2019-04-10T07:07:01.763Z,59.70
2019-04-10T07:11:18.057Z,59.50
2019-04-10T07:15:35.836Z,59.50
2019-04-10T07:19:55.548Z,59.30
2019-04-10T07:24:15.438Z,59.30
2019-04-10T07:28:36.647Z,59.30
2019-04-10T07:32:55.273Z,59.40
2019-04-10T07:37:19.452Z,59.20
2019-04-10T07:41:37.999Z,59.10
2019-04-10T07:45:57.445Z,58.80
2019-04-10T07:50:16.575Z,58.90
2019-04-10T07:54:35.085Z,58.80
2019-04-10T07:58:54.425Z,59.00
2019-04-10T08:03:14.655Z,59.00
2019-04-10T08:07:35.668Z,59.00
2019-04-10T08:11:54.397Z,59.10
2019-04-10T08:16:14.891Z,59.10
2019-04-10T08:20:33.151Z,59.00
2019-04-10T08:24:51.609Z,59.00
2019-04-10T08:29:12.277Z,59.10
2019-04-10T08:33:30.492Z,59.20
2019-04-10T08:37:48.747Z,59.30
2019-04-10T08:42:07.194Z,59.60
2019-04-10T08:46:26.086Z,59.60
2019-04-10T08:50:44.680Z,59.70
2019-04-10T08:55:03.844Z,59.70
2019-04-10T08:59:22.146Z,59.80
2019-04-10T09:03:41.896Z,59.80
2019-04-10T09:08:02.383Z,59.90
2019-04-10T09:12:21.987Z,60.20
2019-04-10T09:16:40.548Z,60.30
2019-04-10T09:20:59.414Z,60.30
2019-04-10T09:25:19.686Z,60.40
2019-04-10T09:29:38.284Z,60.50
2019-04-10T09:33:59.086Z,60.30
2019-04-10T09:38:18.766Z,60.30
2019-04-10T09:42:36.911Z,60.30
2019-04-10T09:46:55.739Z,60.30
2019-04-10T09:51:16.829Z,60.30
2019-04-10T09:55:36.313Z,59.60
2019-04-10T09:59:54.996Z,59.40
2019-04-10T10:04:14.007Z,59.80
2019-04-10T10:08:32.243Z,60.70
2019-04-10T10:12:50.596Z,61.10
2019-04-10T10:17:10.586Z,60.90
2019-04-10T10:21:29.268Z,59.50
2019-04-10T10:25:47.775Z,59.20
2019-04-10T10:30:09.409Z,59.00
2019-04-10T10:34:28.399Z,59.00
2019-04-10T10:38:47.484Z,58.90
2019-04-10T10:43:07.794Z,59.10
2019-04-10T10:47:29.061Z,59.20
2019-04-10T10:51:47.561Z,59.10
2019-04-10T10:56:06.387Z,58.90
2019-04-10T11:00:25.222Z,58.80
2019-04-10T11:04:43.628Z,58.00
2019-04-10T11:09:02.031Z,58.20
2019-04-10T11:13:22.557Z,58.50
2019-04-10T11:17:42.280Z,59.00
2019-04-10T11:22:00.982Z,58.90
2019-04-10T11:26:24.002Z,59.10
2019-04-10T11:30:41.210Z,59.50
2019-04-10T11:35:03.155Z,59.70
2019-04-10T11:39:25.502Z,59.50
2019-04-10T11:43:44.603Z,59.30
2019-04-10T11:48:02.701Z,58.80
2019-04-10T11:52:32.006Z,58.40
2019-04-10T11:56:43.077Z,58.50
2019-04-10T12:01:02.619Z,58.60
2019-04-10T12:05:22.031Z,58.60
2019-04-10T12:14:00.881Z,58.10
2019-04-10T12:18:19.589Z,58.10
2019-04-10T12:22:38.230Z,57.80
2019-04-10T12:26:58.324Z,57.60
2019-04-10T12:31:17.676Z,57.40
2019-04-10T12:35:36.116Z,57.20
2019-04-10T12:39:55.379Z,57.00
2019-04-10T12:44:15.817Z,56.70
2019-04-10T12:48:36.903Z,56.50
2019-04-10T12:52:56.625Z,56.30
2019-04-10T12:57:17.072Z,56.00
2019-04-10T13:01:37.171Z,56.20
2019-04-10T13:05:55.693Z,56.20
2019-04-10T13:10:14.947Z,56.10
2019-04-10T13:14:33.451Z,55.80
2019-04-10T13:18:52.330Z,55.70
2019-04-10T13:23:13.859Z,55.50
2019-04-10T13:27:33.489Z,55.50
2019-04-10T13:31:55.861Z,55.60
2019-04-10T13:36:15.402Z,54.90
2019-04-10T13:40:37.430Z,55.20
2019-04-10T13:44:55.890Z,55.30
2019-04-10T13:49:15.301Z,55.70
2019-04-10T13:53:34.242Z,55.70
2019-04-10T13:57:53.055Z,55.50
2019-04-10T14:02:19.022Z,54.90
2019-04-10T14:06:38.027Z,54.50
2019-04-10T14:10:57.273Z,54.50
2019-04-10T14:15:18.132Z,54.40
2019-04-10T14:19:37.350Z,54.00
2019-04-10T14:23:57.674Z,52.90
2019-04-10T14:28:23.110Z,53.00
2019-04-10T14:32:42.495Z,53.10
2019-04-10T14:37:01.204Z,53.40
2019-04-10T14:41:22.146Z,53.30
2019-04-10T14:45:43.704Z,53.30
2019-04-10T14:50:05.186Z,53.20
2019-04-10T14:54:26.033Z,52.70
2019-04-10T14:58:44.659Z,51.80
2019-04-10T15:03:04.509Z,51.80
2019-04-10T15:07:24.214Z,51.80
2019-04-10T15:11:44.080Z,52.10
2019-04-10T15:16:03.078Z,52.00
2019-04-10T15:20:22.932Z,52.00
2019-04-10T15:24:41.355Z,53.10
2019-04-10T15:29:01.496Z,52.40
2019-04-10T15:33:22.499Z,51.90
2019-04-10T15:37:42.819Z,51.10
2019-04-10T15:42:01.642Z,51.60
2019-04-10T15:46:21.296Z,50.00
2019-04-10T15:50:41.419Z,50.90
2019-04-10T15:54:59.933Z,51.20
2019-04-10T15:59:21.861Z,51.20
2019-04-10T16:03:42.845Z,51.10
2019-04-10T16:08:02.980Z,51.00
2019-04-10T16:12:23.132Z,50.70
2019-04-10T16:17:01.174Z,50.30
2019-04-10T16:21:20.398Z,50.50
2019-04-10T16:25:40.413Z,50.40
2019-04-10T16:30:02.195Z,50.40
2019-04-10T16:34:22.688Z,50.40
2019-04-10T16:38:42.474Z,50.30
2019-04-10T16:43:02.025Z,50.20
2019-04-10T16:47:22.190Z,50.00
2019-04-10T16:51:41.370Z,50.00
2019-04-10T16:55:59.718Z,49.80
2019-04-10T17:00:21.134Z,49.70
2019-04-10T17:04:41.706Z,49.70
2019-04-10T17:09:00.603Z,49.60
2019-04-10T17:13:20.544Z,49.50
2019-04-10T17:17:38.948Z,49.60
2019-04-10T17:21:58.686Z,49.50
2019-04-10T17:26:17.331Z,49.40
2019-04-10T17:30:36.592Z,49.40
2019-04-10T17:34:57.151Z,49.20
2019-04-10T17:39:20.136Z,49.40
2019-04-10T17:43:41.273Z,49.30
2019-04-10T17:48:01.044Z,49.20
2019-04-10T17:52:22.779Z,49.30
2019-04-10T17:56:42.575Z,49.20
2019-04-10T18:01:03.955Z,49.30
2019-04-10T18:05:23.434Z,49.20
2019-04-10T18:09:43.073Z,49.20
2019-04-10T18:14:02.773Z,49.30
2019-04-10T18:18:21.940Z,49.40
2019-04-10T18:22:40.690Z,49.30
2019-04-10T18:27:00.045Z,49.50
2019-04-10T18:31:23.694Z,49.40
2019-04-10T18:35:41.201Z,49.50
2019-04-10T18:40:00.969Z,49.30
2019-04-10T18:44:20.598Z,49.30
2019-04-10T18:48:39.253Z,49.20
2019-04-10T18:52:57.502Z,49.20
2019-04-10T18:57:19.864Z,49.30
2019-04-10T19:02:01.740Z,49.30
2019-04-10T19:06:26.715Z,49.40
2019-04-10T19:10:47.336Z,49.40
2019-04-10T19:15:08.584Z,49.40
2019-04-10T19:19:28.215Z,49.50
2019-04-10T19:23:49.633Z,49.40
2019-04-10T19:28:10.749Z,49.50
2019-04-10T19:32:35.414Z,49.60
2019-04-10T19:36:54.954Z,49.70
2019-04-10T19:41:25.058Z,49.70
2019-04-10T19:45:36.205Z,49.70
2019-04-10T19:49:55.156Z,49.80
2019-04-10T19:54:15.711Z,49.30
2019-04-10T19:58:36.535Z,49.80
2019-04-10T20:02:57.340Z,49.90
2019-04-10T20:07:18.566Z,50.10
2019-04-10T20:11:41.919Z,50.00
2019-04-10T20:15:59.082Z,50.70
2019-04-10T20:20:17.775Z,50.00
2019-04-10T20:24:37.147Z,50.00
2019-04-10T20:28:56.449Z,50.00
2019-04-10T20:33:18.672Z,49.90
2019-04-10T20:37:39.759Z,49.90
2019-04-10T20:42:00.907Z,49.90
2019-04-10T20:46:20.772Z,49.80
2019-04-10T20:50:40.227Z,49.50
2019-04-10T20:54:59.624Z,49.20
2019-04-10T20:59:19.587Z,48.70
2019-04-10T21:03:38.342Z,48.70
2019-04-10T21:07:56.895Z,49.00
2019-04-10T21:12:20.260Z,48.60
2019-04-10T21:16:37.792Z,48.60
2019-04-10T21:20:57.595Z,48.50
2019-04-10T21:25:17.019Z,48.10
2019-04-10T21:29:57.085Z,48.10
2019-04-10T21:34:30.444Z,48.00
2019-04-10T21:38:50.562Z,47.90
2019-04-10T21:43:08.667Z,47.90
2019-04-10T21:47:28.397Z,47.70
2019-04-10T21:51:47.275Z,47.70
2019-04-10T21:56:06.235Z,47.70
2019-04-10T22:00:42.989Z,47.70
2019-04-10T22:05:01.934Z,47.60
2019-04-10T22:09:45.590Z,47.70
2019-04-10T22:14:04.519Z,47.50
2019-04-10T22:18:23.784Z,47.50
2019-04-10T22:22:42.924Z,47.40
2019-04-10T22:27:01.291Z,47.20
2019-04-10T22:31:20.333Z,47.10
2019-04-10T22:35:40.240Z,47.00
2019-04-10T22:40:00.826Z,47.00
2019-04-10T22:44:32.463Z,46.90
2019-04-10T22:48:40.511Z,46.90
2019-04-10T22:52:59.808Z,46.90
2019-04-10T22:57:19.427Z,46.70
2019-04-10T23:01:38.089Z,46.70
2019-04-10T23:05:56.535Z,46.60
2019-04-10T23:10:15.626Z,46.60
2019-04-10T23:14:34.427Z,46.50
2019-04-10T23:18:53.866Z,46.50
2019-04-10T23:23:12.211Z,46.50
2019-04-10T23:27:30.499Z,46.60
2019-04-10T23:31:49.985Z,46.50
2019-04-10T23:36:08.319Z,46.50
2019-04-10T23:40:27.207Z,46.40
2019-04-10T23:44:45.481Z,46.40
2019-04-10T23:49:04.010Z,46.40
2019-04-10T23:53:22.717Z,46.40
2019-04-10T23:57:43.336Z,46.10
